sensor_id;sensor_type;location;lat;lon;timestamp;temperature;humidity
19665;DHT22;9980;51.020;7.772;2023-04-25T00:00:48;7.40;99.80
19665;DHT22;9980;51.020;7.772;2023-04-25T00:03:14;7.40;99.80
19665;DHT22;9980;51.020;7.772;2023-04-25T00:05:41;7.40;99.80
19665;DHT22;9980;51.020;7.772;2023-04-25T00:08:07;7.40;99.80
19665;DHT22;9980;51.020;7.772;2023-04-25T00:10:33;7.40;99.80
19665;DHT22;9980;51.020;7.772;2023-04-25T00:13:00;7.40;99.80
19665;DHT22;9980;51.020;7.772;2023-04-25T00:15:29;7.40;99.90
19665;DHT22;9980;51.020;7.772;2023-04-25T00:17:57;7.40;99.90
19665;DHT22;9980;51.020;7.772;2023-04-25T00:20:23;7.50;99.90
19665;DHT22;9980;51.020;7.772;2023-04-25T00:22:50;7.50;99.90
19665;DHT22;9980;51.020;7.772;2023-04-25T00:25:19;7.50;99.90
19665;DHT22;9980;51.020;7.772;2023-04-25T00:27:45;7.50;99.90
19665;DHT22;9980;51.020;7.772;2023-04-25T00:30:12;7.50;99.90
19665;DHT22;9980;51.020;7.772;2023-04-25T00:32:40;7.50;99.90
19665;DHT22;9980;51.020;7.772;2023-04-25T00:35:06;7.50;99.90
19665;DHT22;9980;51.020;7.772;2023-04-25T00:37:32;7.50;99.90
19665;DHT22;9980;51.020;7.772;2023-04-25T00:39:59;7.50;99.90
19665;DHT22;9980;51.020;7.772;2023-04-25T00:42:26;7.50;99.90
19665;DHT22;9980;51.020;7.772;2023-04-25T00:44:53;7.50;99.90
19665;DHT22;9980;51.020;7.772;2023-04-25T00:47:19;7.50;99.90
19665;DHT22;9980;51.020;7.772;2023-04-25T00:49:46;7.40;99.90
19665;DHT22;9980;51.020;7.772;2023-04-25T00:52:12;7.40;99.90
19665;DHT22;9980;51.020;7.772;2023-04-25T00:54:39;7.40;99.90
19665;DHT22;9980;51.020;7.772;2023-04-25T00:57:05;7.40;99.90
19665;DHT22;9980;51.020;7.772;2023-04-25T00:59:32;7.40;99.90
19665;DHT22;9980;51.020;7.772;2023-04-25T01:01:59;7.40;99.90
19665;DHT22;9980;51.020;7.772;2023-04-25T01:04:27;7.40;99.90
19665;DHT22;9980;51.020;7.772;2023-04-25T01:06:55;7.40;99.90
19665;DHT22;9980;51.020;7.772;2023-04-25T01:09:22;7.40;99.90
19665;DHT22;9980;51.020;7.772;2023-04-25T01:11:49;7.40;99.90
19665;DHT22;9980;51.020;7.772;2023-04-25T01:14:16;7.40;99.90
19665;DHT22;9980;51.020;7.772;2023-04-25T01:16:42;7.40;99.90
19665;DHT22;9980;51.020;7.772;2023-04-25T01:19:09;7.30;99.90
19665;DHT22;9980;51.020;7.772;2023-04-25T01:21:39;7.30;99.90
19665;DHT22;9980;51.020;7.772;2023-04-25T01:24:06;7.30;99.90
19665;DHT22;9980;51.020;7.772;2023-04-25T01:26:33;7.30;99.90
19665;DHT22;9980;51.020;7.772;2023-04-25T01:29:01;7.30;99.90
19665;DHT22;9980;51.020;7.772;2023-04-25T01:31:28;7.30;99.90
19665;DHT22;9980;51.020;7.772;2023-04-25T01:33:55;7.30;99.90
19665;DHT22;9980;51.020;7.772;2023-04-25T01:36:22;7.30;99.90
19665;DHT22;9980;51.020;7.772;2023-04-25T01:38:49;7.40;99.90
19665;DHT22;9980;51.020;7.772;2023-04-25T01:41:15;7.40;99.90
19665;DHT22;9980;51.020;7.772;2023-04-25T01:43:44;7.40;99.90
19665;DHT22;9980;51.020;7.772;2023-04-25T01:46:12;7.40;99.90
19665;DHT22;9980;51.020;7.772;2023-04-25T01:48:38;7.50;99.90
19665;DHT22;9980;51.020;7.772;2023-04-25T01:51:06;7.50;99.90
19665;DHT22;9980;51.020;7.772;2023-04-25T01:53:32;7.50;99.90
19665;DHT22;9980;51.020;7.772;2023-04-25T01:56:01;7.60;99.90
19665;DHT22;9980;51.020;7.772;2023-04-25T01:58:32;7.60;99.90
19665;DHT22;9980;51.020;7.772;2023-04-25T02:01:24;7.60;99.90
19665;DHT22;9980;51.020;7.772;2023-04-25T02:04:09;7.70;99.90
19665;DHT22;9980;51.020;7.772;2023-04-25T02:06:38;7.70;99.90
19665;DHT22;9980;51.020;7.772;2023-04-25T02:09:06;7.70;99.90
19665;DHT22;9980;51.020;7.772;2023-04-25T02:11:32;7.80;99.90
19665;DHT22;9980;51.020;7.772;2023-04-25T02:14:17;7.80;99.90
19665;DHT22;9980;51.020;7.772;2023-04-25T02:16:59;7.80;99.90
19665;DHT22;9980;51.020;7.772;2023-04-25T02:19:26;7.80;99.90
19665;DHT22;9980;51.020;7.772;2023-04-25T02:21:52;7.90;99.90
19665;DHT22;9980;51.020;7.772;2023-04-25T02:24:18;7.90;99.90
19665;DHT22;9980;51.020;7.772;2023-04-25T02:26:44;7.90;99.90
19665;DHT22;9980;51.020;7.772;2023-04-25T02:29:12;8.00;99.90
19665;DHT22;9980;51.020;7.772;2023-04-25T02:31:41;8.00;99.90
19665;DHT22;9980;51.020;7.772;2023-04-25T02:34:08;8.00;99.90
19665;DHT22;9980;51.020;7.772;2023-04-25T02:36:36;8.00;99.90
19665;DHT22;9980;51.020;7.772;2023-04-25T02:39:02;8.00;99.90
19665;DHT22;9980;51.020;7.772;2023-04-25T02:41:29;8.00;99.90
19665;DHT22;9980;51.020;7.772;2023-04-25T02:43:55;8.10;99.90
19665;DHT22;9980;51.020;7.772;2023-04-25T02:46:21;8.00;99.90
19665;DHT22;9980;51.020;7.772;2023-04-25T02:49:05;8.10;99.90
19665;DHT22;9980;51.020;7.772;2023-04-25T02:51:32;8.10;99.90
19665;DHT22;9980;51.020;7.772;2023-04-25T02:53:59;8.10;99.90
19665;DHT22;9980;51.020;7.772;2023-04-25T02:56:25;8.10;99.90
19665;DHT22;9980;51.020;7.772;2023-04-25T02:58:52;8.20;99.90
19665;DHT22;9980;51.020;7.772;2023-04-25T03:01:19;8.20;99.90
19665;DHT22;9980;51.020;7.772;2023-04-25T03:03:45;8.20;99.90
19665;DHT22;9980;51.020;7.772;2023-04-25T03:06:12;8.20;99.90
19665;DHT22;9980;51.020;7.772;2023-04-25T03:08:38;8.20;99.90
19665;DHT22;9980;51.020;7.772;2023-04-25T03:11:05;8.20;99.90
19665;DHT22;9980;51.020;7.772;2023-04-25T03:13:31;8.20;99.90
19665;DHT22;9980;51.020;7.772;2023-04-25T03:15:58;8.20;99.90
19665;DHT22;9980;51.020;7.772;2023-04-25T03:18:25;8.20;99.90
19665;DHT22;9980;51.020;7.772;2023-04-25T03:20:51;8.30;99.90
19665;DHT22;9980;51.020;7.772;2023-04-25T03:23:17;8.30;99.90
19665;DHT22;9980;51.020;7.772;2023-04-25T03:25:44;8.30;99.90
19665;DHT22;9980;51.020;7.772;2023-04-25T03:28:11;8.30;99.90
19665;DHT22;9980;51.020;7.772;2023-04-25T03:30:37;8.30;99.90
19665;DHT22;9980;51.020;7.772;2023-04-25T03:33:03;8.30;99.90
19665;DHT22;9980;51.020;7.772;2023-04-25T03:35:30;8.30;99.90
19665;DHT22;9980;51.020;7.772;2023-04-25T03:37:56;8.30;99.90
19665;DHT22;9980;51.020;7.772;2023-04-25T03:40:28;8.30;99.90
19665;DHT22;9980;51.020;7.772;2023-04-25T03:43:12;8.40;99.90
19665;DHT22;9980;51.020;7.772;2023-04-25T03:45:44;8.30;99.90
19665;DHT22;9980;51.020;7.772;2023-04-25T03:48:11;8.40;99.90
19665;DHT22;9980;51.020;7.772;2023-04-25T03:50:38;8.40;99.90
19665;DHT22;9980;51.020;7.772;2023-04-25T03:53:04;8.40;99.90
19665;DHT22;9980;51.020;7.772;2023-04-25T03:55:44;8.40;99.90
19665;DHT22;9980;51.020;7.772;2023-04-25T03:58:10;8.40;99.90
19665;DHT22;9980;51.020;7.772;2023-04-25T04:00:37;8.40;99.90
19665;DHT22;9980;51.020;7.772;2023-04-25T04:03:04;8.40;99.90
19665;DHT22;9980;51.020;7.772;2023-04-25T04:05:30;8.40;99.90
19665;DHT22;9980;51.020;7.772;2023-04-25T04:07:58;8.40;99.90
19665;DHT22;9980;51.020;7.772;2023-04-25T04:10:24;8.40;99.90
19665;DHT22;9980;51.020;7.772;2023-04-25T04:12:54;8.40;99.90
19665;DHT22;9980;51.020;7.772;2023-04-25T04:15:20;8.40;99.90
19665;DHT22;9980;51.020;7.772;2023-04-25T04:17:48;8.40;99.90
19665;DHT22;9980;51.020;7.772;2023-04-25T04:20:14;8.50;99.90
19665;DHT22;9980;51.020;7.772;2023-04-25T04:22:41;8.40;99.90
19665;DHT22;9980;51.020;7.772;2023-04-25T04:25:10;8.40;99.90
19665;DHT22;9980;51.020;7.772;2023-04-25T04:28:00;8.50;99.90
19665;DHT22;9980;51.020;7.772;2023-04-25T04:30:48;8.50;99.90
19665;DHT22;9980;51.020;7.772;2023-04-25T04:33:17;8.40;99.90
19665;DHT22;9980;51.020;7.772;2023-04-25T04:35:47;8.40;99.90
19665;DHT22;9980;51.020;7.772;2023-04-25T04:38:15;8.50;99.90
19665;DHT22;9980;51.020;7.772;2023-04-25T04:40:42;8.50;99.90
19665;DHT22;9980;51.020;7.772;2023-04-25T04:43:31;8.50;99.90
19665;DHT22;9980;51.020;7.772;2023-04-25T04:46:07;8.50;99.90
19665;DHT22;9980;51.020;7.772;2023-04-25T04:49:10;8.50;99.90
19665;DHT22;9980;51.020;7.772;2023-04-25T04:52:02;8.50;99.90
19665;DHT22;9980;51.020;7.772;2023-04-25T04:54:37;8.60;99.90
19665;DHT22;9980;51.020;7.772;2023-04-25T04:57:16;8.60;99.90
19665;DHT22;9980;51.020;7.772;2023-04-25T05:00:13;8.60;99.90
19665;DHT22;9980;51.020;7.772;2023-04-25T05:02:56;8.60;99.90
19665;DHT22;9980;51.020;7.772;2023-04-25T05:05:58;8.60;99.90
19665;DHT22;9980;51.020;7.772;2023-04-25T05:08:53;8.70;99.90
19665;DHT22;9980;51.020;7.772;2023-04-25T05:11:23;8.70;99.90
19665;DHT22;9980;51.020;7.772;2023-04-25T05:14:05;8.70;99.90
19665;DHT22;9980;51.020;7.772;2023-04-25T05:16:43;8.80;99.90
19665;DHT22;9980;51.020;7.772;2023-04-25T05:19:39;8.80;99.90
19665;DHT22;9980;51.020;7.772;2023-04-25T05:22:24;8.90;99.90
19665;DHT22;9980;51.020;7.772;2023-04-25T05:25:10;8.90;99.90
19665;DHT22;9980;51.020;7.772;2023-04-25T05:27:56;9.00;99.90
19665;DHT22;9980;51.020;7.772;2023-04-25T05:30:41;9.10;99.90
19665;DHT22;9980;51.020;7.772;2023-04-25T05:33:13;9.10;99.90
19665;DHT22;9980;51.020;7.772;2023-04-25T05:35:40;9.20;99.90
19665;DHT22;9980;51.020;7.772;2023-04-25T05:38:07;9.30;99.90
19665;DHT22;9980;51.020;7.772;2023-04-25T05:41:05;9.40;99.90
19665;DHT22;9980;51.020;7.772;2023-04-25T05:43:52;9.50;99.90
19665;DHT22;9980;51.020;7.772;2023-04-25T05:46:34;9.50;99.90
19665;DHT22;9980;51.020;7.772;2023-04-25T05:49:21;9.60;99.90
19665;DHT22;9980;51.020;7.772;2023-04-25T05:52:18;9.70;99.90
19665;DHT22;9980;51.020;7.772;2023-04-25T05:54:54;9.70;99.80
19665;DHT22;9980;51.020;7.772;2023-04-25T05:57:25;9.80;99.90
19665;DHT22;9980;51.020;7.772;2023-04-25T05:59:54;9.80;99.50
19665;DHT22;9980;51.020;7.772;2023-04-25T06:02:22;9.80;99.40
19665;DHT22;9980;51.020;7.772;2023-04-25T06:04:50;9.80;99.20
19665;DHT22;9980;51.020;7.772;2023-04-25T06:07:18;9.80;99.20
19665;DHT22;9980;51.020;7.772;2023-04-25T06:09:45;9.80;99.20
19665;DHT22;9980;51.020;7.772;2023-04-25T06:12:12;9.80;99.20
19665;DHT22;9980;51.020;7.772;2023-04-25T06:14:38;9.90;99.40
19665;DHT22;9980;51.020;7.772;2023-04-25T06:17:06;9.90;99.50
19665;DHT22;9980;51.020;7.772;2023-04-25T06:19:35;9.90;99.40
19665;DHT22;9980;51.020;7.772;2023-04-25T06:22:02;9.90;99.50
19665;DHT22;9980;51.020;7.772;2023-04-25T06:24:30;9.90;99.10
19665;DHT22;9980;51.020;7.772;2023-04-25T06:26:56;9.90;99.00
19665;DHT22;9980;51.020;7.772;2023-04-25T06:29:23;9.90;99.00
19665;DHT22;9980;51.020;7.772;2023-04-25T06:31:49;9.90;98.80
19665;DHT22;9980;51.020;7.772;2023-04-25T06:34:15;9.90;98.80
19665;DHT22;9980;51.020;7.772;2023-04-25T06:36:42;9.90;98.60
19665;DHT22;9980;51.020;7.772;2023-04-25T06:39:13;9.90;98.50
19665;DHT22;9980;51.020;7.772;2023-04-25T06:41:39;9.90;98.30
19665;DHT22;9980;51.020;7.772;2023-04-25T06:44:08;9.90;98.20
19665;DHT22;9980;51.020;7.772;2023-04-25T06:46:39;9.80;98.10
19665;DHT22;9980;51.020;7.772;2023-04-25T06:49:06;9.80;98.10
19665;DHT22;9980;51.020;7.772;2023-04-25T06:51:33;9.70;98.20
19665;DHT22;9980;51.020;7.772;2023-04-25T06:53:59;9.70;98.30
19665;DHT22;9980;51.020;7.772;2023-04-25T06:56:32;9.70;98.20
19665;DHT22;9980;51.020;7.772;2023-04-25T06:59:06;9.60;98.20
19665;DHT22;9980;51.020;7.772;2023-04-25T07:01:35;9.60;98.60
19665;DHT22;9980;51.020;7.772;2023-04-25T07:04:05;9.60;98.80
19665;DHT22;9980;51.020;7.772;2023-04-25T07:06:34;9.60;98.70
19665;DHT22;9980;51.020;7.772;2023-04-25T07:09:04;9.50;98.80
19665;DHT22;9980;51.020;7.772;2023-04-25T07:11:31;9.50;98.90
19665;DHT22;9980;51.020;7.772;2023-04-25T07:14:00;9.50;98.80
19665;DHT22;9980;51.020;7.772;2023-04-25T07:16:26;9.50;98.80
19665;DHT22;9980;51.020;7.772;2023-04-25T07:18:53;9.60;98.80
19665;DHT22;9980;51.020;7.772;2023-04-25T07:21:20;9.60;98.90
19665;DHT22;9980;51.020;7.772;2023-04-25T07:23:48;9.60;99.00
19665;DHT22;9980;51.020;7.772;2023-04-25T07:26:19;9.70;98.90
19665;DHT22;9980;51.020;7.772;2023-04-25T07:29:16;9.70;98.80
19665;DHT22;9980;51.020;7.772;2023-04-25T07:31:42;9.80;98.90
19665;DHT22;9980;51.020;7.772;2023-04-25T07:34:09;9.80;98.90
19665;DHT22;9980;51.020;7.772;2023-04-25T07:36:37;9.90;99.10
19665;DHT22;9980;51.020;7.772;2023-04-25T07:39:04;10.00;99.20
19665;DHT22;9980;51.020;7.772;2023-04-25T07:41:31;10.10;98.80
19665;DHT22;9980;51.020;7.772;2023-04-25T07:43:58;10.20;98.50
19665;DHT22;9980;51.020;7.772;2023-04-25T07:46:25;10.30;98.20
19665;DHT22;9980;51.020;7.772;2023-04-25T07:48:52;10.40;98.00
19665;DHT22;9980;51.020;7.772;2023-04-25T07:51:18;10.50;97.50
19665;DHT22;9980;51.020;7.772;2023-04-25T07:53:46;10.60;97.40
19665;DHT22;9980;51.020;7.772;2023-04-25T07:56:16;10.60;97.20
19665;DHT22;9980;51.020;7.772;2023-04-25T07:58:47;10.70;97.40
19665;DHT22;9980;51.020;7.772;2023-04-25T08:01:15;10.80;97.10
19665;DHT22;9980;51.020;7.772;2023-04-25T08:03:42;10.90;97.00
19665;DHT22;9980;51.020;7.772;2023-04-25T08:06:15;11.00;97.70
19665;DHT22;9980;51.020;7.772;2023-04-25T08:09:11;11.10;97.50
19665;DHT22;9980;51.020;7.772;2023-04-25T08:11:40;11.20;96.90
19665;DHT22;9980;51.020;7.772;2023-04-25T08:14:10;11.30;96.70
19665;DHT22;9980;51.020;7.772;2023-04-25T08:16:39;11.50;97.20
19665;DHT22;9980;51.020;7.772;2023-04-25T08:19:06;11.60;96.60
19665;DHT22;9980;51.020;7.772;2023-04-25T08:21:32;11.60;95.70
19665;DHT22;9980;51.020;7.772;2023-04-25T08:24:03;11.70;95.50
19665;DHT22;9980;51.020;7.772;2023-04-25T08:26:33;11.80;95.40
19665;DHT22;9980;51.020;7.772;2023-04-25T08:29:01;11.80;95.70
19665;DHT22;9980;51.020;7.772;2023-04-25T08:31:27;11.90;94.90
19665;DHT22;9980;51.020;7.772;2023-04-25T08:33:57;11.90;95.00
19665;DHT22;9980;51.020;7.772;2023-04-25T08:36:36;12.00;95.10
19665;DHT22;9980;51.020;7.772;2023-04-25T08:39:24;12.00;94.80
19665;DHT22;9980;51.020;7.772;2023-04-25T08:42:10;12.10;94.70
19665;DHT22;9980;51.020;7.772;2023-04-25T08:44:38;12.10;94.60
19665;DHT22;9980;51.020;7.772;2023-04-25T08:47:05;12.10;95.00
19665;DHT22;9980;51.020;7.772;2023-04-25T08:49:40;12.20;94.70
19665;DHT22;9980;51.020;7.772;2023-04-25T08:52:14;12.20;94.70
19665;DHT22;9980;51.020;7.772;2023-04-25T08:54:47;12.30;94.20
19665;DHT22;9980;51.020;7.772;2023-04-25T08:57:15;12.30;93.90
19665;DHT22;9980;51.020;7.772;2023-04-25T08:59:46;12.40;93.30
19665;DHT22;9980;51.020;7.772;2023-04-25T09:02:15;12.40;93.40
19665;DHT22;9980;51.020;7.772;2023-04-25T09:04:47;12.40;93.10
19665;DHT22;9980;51.020;7.772;2023-04-25T09:07:14;12.40;93.10
19665;DHT22;9980;51.020;7.772;2023-04-25T09:09:44;12.40;92.70
19665;DHT22;9980;51.020;7.772;2023-04-25T09:12:10;12.40;93.10
19665;DHT22;9980;51.020;7.772;2023-04-25T09:14:39;12.40;93.20
19665;DHT22;9980;51.020;7.772;2023-04-25T09:17:18;12.30;93.10
19665;DHT22;9980;51.020;7.772;2023-04-25T09:20:08;12.30;92.70
19665;DHT22;9980;51.020;7.772;2023-04-25T09:22:37;12.30;92.70
19665;DHT22;9980;51.020;7.772;2023-04-25T09:25:11;12.30;92.50
19665;DHT22;9980;51.020;7.772;2023-04-25T09:27:51;12.30;92.60
19665;DHT22;9980;51.020;7.772;2023-04-25T09:30:33;12.30;92.70
19665;DHT22;9980;51.020;7.772;2023-04-25T09:33:07;12.30;92.90
19665;DHT22;9980;51.020;7.772;2023-04-25T09:35:41;12.30;92.80
19665;DHT22;9980;51.020;7.772;2023-04-25T09:38:15;12.30;92.80
19665;DHT22;9980;51.020;7.772;2023-04-25T09:41:02;12.30;93.20
19665;DHT22;9980;51.020;7.772;2023-04-25T09:43:39;12.30;93.00
19665;DHT22;9980;51.020;7.772;2023-04-25T09:46:10;12.40;92.50
19665;DHT22;9980;51.020;7.772;2023-04-25T09:48:40;12.40;92.30
19665;DHT22;9980;51.020;7.772;2023-04-25T09:51:14;12.50;92.10
19665;DHT22;9980;51.020;7.772;2023-04-25T09:53:44;12.60;91.80
19665;DHT22;9980;51.020;7.772;2023-04-25T09:56:36;12.60;91.40
19665;DHT22;9980;51.020;7.772;2023-04-25T09:59:07;12.60;91.20
19665;DHT22;9980;51.020;7.772;2023-04-25T10:01:39;12.60;91.70
19665;DHT22;9980;51.020;7.772;2023-04-25T10:04:12;12.70;92.00
19665;DHT22;9980;51.020;7.772;2023-04-25T10:07:06;12.80;92.70
19665;DHT22;9980;51.020;7.772;2023-04-25T10:09:37;12.90;92.40
19665;DHT22;9980;51.020;7.772;2023-04-25T10:12:07;13.00;92.40
19665;DHT22;9980;51.020;7.772;2023-04-25T10:14:34;13.10;92.40
19665;DHT22;9980;51.020;7.772;2023-04-25T10:17:01;13.20;92.30
19665;DHT22;9980;51.020;7.772;2023-04-25T10:19:28;13.30;91.30
19665;DHT22;9980;51.020;7.772;2023-04-25T10:22:15;13.40;90.50
19665;DHT22;9980;51.020;7.772;2023-04-25T10:24:46;13.40;89.70
19665;DHT22;9980;51.020;7.772;2023-04-25T10:27:13;13.40;90.20
19665;DHT22;9980;51.020;7.772;2023-04-25T10:29:41;13.40;90.20
19665;DHT22;9980;51.020;7.772;2023-04-25T10:32:09;13.50;90.00
19665;DHT22;9980;51.020;7.772;2023-04-25T10:34:45;13.50;89.30
19665;DHT22;9980;51.020;7.772;2023-04-25T10:37:14;13.40;89.30
19665;DHT22;9980;51.020;7.772;2023-04-25T10:39:41;13.40;89.50
19665;DHT22;9980;51.020;7.772;2023-04-25T10:42:08;13.50;90.00
19665;DHT22;9980;51.020;7.772;2023-04-25T10:44:37;13.50;89.00
19665;DHT22;9980;51.020;7.772;2023-04-25T10:47:07;13.50;87.80
19665;DHT22;9980;51.020;7.772;2023-04-25T10:49:41;13.50;86.00
19665;DHT22;9980;51.020;7.772;2023-04-25T10:54:52;13.60;88.60
19665;DHT22;9980;51.020;7.772;2023-04-25T10:57:36;13.70;88.10
19665;DHT22;9980;51.020;7.772;2023-04-25T11:00:18;13.80;87.00
19665;DHT22;9980;51.020;7.772;2023-04-25T11:02:53;13.90;87.40
19665;DHT22;9980;51.020;7.772;2023-04-25T11:05:34;13.90;86.40
19665;DHT22;9980;51.020;7.772;2023-04-25T11:08:13;13.90;86.80
19665;DHT22;9980;51.020;7.772;2023-04-25T11:10:44;13.90;86.50
19665;DHT22;9980;51.020;7.772;2023-04-25T11:13:10;13.80;85.70
19665;DHT22;9980;51.020;7.772;2023-04-25T11:15:37;13.80;86.10
19665;DHT22;9980;51.020;7.772;2023-04-25T11:18:03;13.80;84.80
19665;DHT22;9980;51.020;7.772;2023-04-25T11:20:30;13.70;82.70
19665;DHT22;9980;51.020;7.772;2023-04-25T11:22:59;13.80;82.60
19665;DHT22;9980;51.020;7.772;2023-04-25T11:25:26;13.70;81.80
19665;DHT22;9980;51.020;7.772;2023-04-25T11:27:54;13.80;81.80
19665;DHT22;9980;51.020;7.772;2023-04-25T11:30:25;13.80;82.10
19665;DHT22;9980;51.020;7.772;2023-04-25T11:32:53;13.80;81.60
19665;DHT22;9980;51.020;7.772;2023-04-25T11:35:20;13.90;82.70
19665;DHT22;9980;51.020;7.772;2023-04-25T11:37:49;13.90;83.90
19665;DHT22;9980;51.020;7.772;2023-04-25T11:40:16;14.00;85.60
19665;DHT22;9980;51.020;7.772;2023-04-25T11:42:47;14.10;86.40
19665;DHT22;9980;51.020;7.772;2023-04-25T11:45:14;14.30;85.50
19665;DHT22;9980;51.020;7.772;2023-04-25T11:47:40;14.50;84.50
19665;DHT22;9980;51.020;7.772;2023-04-25T11:50:08;14.70;84.20
19665;DHT22;9980;51.020;7.772;2023-04-25T11:52:39;14.90;83.60
19665;DHT22;9980;51.020;7.772;2023-04-25T11:55:15;15.10;81.70
19665;DHT22;9980;51.020;7.772;2023-04-25T11:57:45;15.20;79.10
19665;DHT22;9980;51.020;7.772;2023-04-25T12:00:15;15.30;78.40
19665;DHT22;9980;51.020;7.772;2023-04-25T12:02:52;15.40;77.60
19665;DHT22;9980;51.020;7.772;2023-04-25T12:05:24;15.40;77.80
19665;DHT22;9980;51.020;7.772;2023-04-25T12:08:12;15.40;77.40
19665;DHT22;9980;51.020;7.772;2023-04-25T12:10:40;15.40;76.70
19665;DHT22;9980;51.020;7.772;2023-04-25T12:13:24;15.30;77.10
19665;DHT22;9980;51.020;7.772;2023-04-25T12:15:54;15.30;76.00
19665;DHT22;9980;51.020;7.772;2023-04-25T12:18:24;15.20;75.50
19665;DHT22;9980;51.020;7.772;2023-04-25T12:20:54;15.20;75.80
19665;DHT22;9980;51.020;7.772;2023-04-25T12:23:28;15.10;76.00
19665;DHT22;9980;51.020;7.772;2023-04-25T12:25:56;15.10;74.50
19665;DHT22;9980;51.020;7.772;2023-04-25T12:28:25;15.00;76.20
19665;DHT22;9980;51.020;7.772;2023-04-25T12:31:03;15.10;77.70
19665;DHT22;9980;51.020;7.772;2023-04-25T12:33:35;15.10;76.80
19665;DHT22;9980;51.020;7.772;2023-04-25T12:36:04;15.20;77.60
19665;DHT22;9980;51.020;7.772;2023-04-25T12:38:39;15.30;76.30
19665;DHT22;9980;51.020;7.772;2023-04-25T12:41:07;15.30;76.00
19665;DHT22;9980;51.020;7.772;2023-04-25T12:43:33;15.30;75.80
19665;DHT22;9980;51.020;7.772;2023-04-25T12:46:00;15.30;75.50
19665;DHT22;9980;51.020;7.772;2023-04-25T12:48:27;15.20;75.90
19665;DHT22;9980;51.020;7.772;2023-04-25T12:50:53;15.10;75.70
19665;DHT22;9980;51.020;7.772;2023-04-25T12:53:21;15.10;75.50
19665;DHT22;9980;51.020;7.772;2023-04-25T12:55:48;15.00;75.60
19665;DHT22;9980;51.020;7.772;2023-04-25T12:58:15;14.90;75.20
19665;DHT22;9980;51.020;7.772;2023-04-25T13:00:44;14.80;74.90
19665;DHT22;9980;51.020;7.772;2023-04-25T13:03:11;14.80;74.30
19665;DHT22;9980;51.020;7.772;2023-04-25T13:05:39;14.80;74.30
19665;DHT22;9980;51.020;7.772;2023-04-25T13:08:05;14.80;73.90
19665;DHT22;9980;51.020;7.772;2023-04-25T13:10:32;14.70;74.50
19665;DHT22;9980;51.020;7.772;2023-04-25T13:13:00;14.70;75.10
19665;DHT22;9980;51.020;7.772;2023-04-25T13:15:27;14.70;76.00
19665;DHT22;9980;51.020;7.772;2023-04-25T13:17:53;14.70;75.50
19665;DHT22;9980;51.020;7.772;2023-04-25T13:20:19;14.70;76.00
19665;DHT22;9980;51.020;7.772;2023-04-25T13:22:48;14.70;75.70
19665;DHT22;9980;51.020;7.772;2023-04-25T13:25:14;14.80;76.50
19665;DHT22;9980;51.020;7.772;2023-04-25T13:27:41;14.80;77.50
19665;DHT22;9980;51.020;7.772;2023-04-25T13:30:10;14.90;76.00
19665;DHT22;9980;51.020;7.772;2023-04-25T13:32:37;14.90;76.30
19665;DHT22;9980;51.020;7.772;2023-04-25T13:35:10;15.00;75.10
19665;DHT22;9980;51.020;7.772;2023-04-25T13:37:39;15.00;74.20
19665;DHT22;9980;51.020;7.772;2023-04-25T13:40:08;15.00;75.00
19665;DHT22;9980;51.020;7.772;2023-04-25T13:42:37;15.00;74.10
19665;DHT22;9980;51.020;7.772;2023-04-25T13:45:05;14.90;74.20
19665;DHT22;9980;51.020;7.772;2023-04-25T13:47:32;14.90;74.10
19665;DHT22;9980;51.020;7.772;2023-04-25T13:49:58;14.90;75.40
19665;DHT22;9980;51.020;7.772;2023-04-25T13:52:25;14.90;74.40
19665;DHT22;9980;51.020;7.772;2023-04-25T13:54:51;14.90;73.50
19665;DHT22;9980;51.020;7.772;2023-04-25T13:57:18;14.80;74.30
19665;DHT22;9980;51.020;7.772;2023-04-25T13:59:44;14.70;73.70
19665;DHT22;9980;51.020;7.772;2023-04-25T14:02:12;14.70;73.80
19665;DHT22;9980;51.020;7.772;2023-04-25T14:04:38;14.70;76.10
19665;DHT22;9980;51.020;7.772;2023-04-25T14:07:05;14.70;75.30
19665;DHT22;9980;51.020;7.772;2023-04-25T14:09:31;14.70;73.80
19665;DHT22;9980;51.020;7.772;2023-04-25T14:11:57;14.60;75.30
19665;DHT22;9980;51.020;7.772;2023-04-25T14:14:23;14.60;75.60
19665;DHT22;9980;51.020;7.772;2023-04-25T14:16:51;14.50;75.90
19665;DHT22;9980;51.020;7.772;2023-04-25T14:19:20;14.50;75.30
19665;DHT22;9980;51.020;7.772;2023-04-25T14:21:48;14.40;76.00
19665;DHT22;9980;51.020;7.772;2023-04-25T14:24:14;14.40;75.50
19665;DHT22;9980;51.020;7.772;2023-04-25T14:26:42;14.30;75.80
19665;DHT22;9980;51.020;7.772;2023-04-25T14:29:09;14.30;75.00
19665;DHT22;9980;51.020;7.772;2023-04-25T14:31:38;14.20;75.60
19665;DHT22;9980;51.020;7.772;2023-04-25T14:34:05;14.20;77.00
19665;DHT22;9980;51.020;7.772;2023-04-25T14:36:32;14.20;77.30
19665;DHT22;9980;51.020;7.772;2023-04-25T14:38:59;14.20;78.50
19665;DHT22;9980;51.020;7.772;2023-04-25T14:41:26;14.10;78.10
19665;DHT22;9980;51.020;7.772;2023-04-25T14:43:53;14.20;77.50
19665;DHT22;9980;51.020;7.772;2023-04-25T14:46:20;14.20;77.50
19665;DHT22;9980;51.020;7.772;2023-04-25T14:48:46;14.30;76.20
19665;DHT22;9980;51.020;7.772;2023-04-25T14:51:13;14.30;75.90
19665;DHT22;9980;51.020;7.772;2023-04-25T14:53:40;14.40;75.10
19665;DHT22;9980;51.020;7.772;2023-04-25T14:56:06;14.50;74.40
19665;DHT22;9980;51.020;7.772;2023-04-25T14:58:33;14.50;75.00
19665;DHT22;9980;51.020;7.772;2023-04-25T15:01:00;14.60;75.20
19665;DHT22;9980;51.020;7.772;2023-04-25T15:03:27;14.70;74.60
19665;DHT22;9980;51.020;7.772;2023-04-25T15:05:55;14.80;75.30
19665;DHT22;9980;51.020;7.772;2023-04-25T15:08:21;14.90;74.60
19665;DHT22;9980;51.020;7.772;2023-04-25T15:10:48;14.90;72.80
19665;DHT22;9980;51.020;7.772;2023-04-25T15:13:14;15.00;72.10
19665;DHT22;9980;51.020;7.772;2023-04-25T15:15:41;15.00;72.60
19665;DHT22;9980;51.020;7.772;2023-04-25T15:18:07;15.00;72.90
19665;DHT22;9980;51.020;7.772;2023-04-25T15:20:34;15.00;72.10
19665;DHT22;9980;51.020;7.772;2023-04-25T15:23:01;15.00;72.00
19665;DHT22;9980;51.020;7.772;2023-04-25T15:25:29;15.00;72.00
19665;DHT22;9980;51.020;7.772;2023-04-25T15:27:55;15.00;72.30
19665;DHT22;9980;51.020;7.772;2023-04-25T15:30:21;15.00;73.40
19665;DHT22;9980;51.020;7.772;2023-04-25T15:32:48;14.90;73.30
19665;DHT22;9980;51.020;7.772;2023-04-25T15:35:14;14.80;73.70
19665;DHT22;9980;51.020;7.772;2023-04-25T15:37:41;14.70;74.20
19665;DHT22;9980;51.020;7.772;2023-04-25T15:40:10;14.60;74.40
19665;DHT22;9980;51.020;7.772;2023-04-25T15:42:40;14.50;72.00
19665;DHT22;9980;51.020;7.772;2023-04-25T15:45:10;14.40;71.50
19665;DHT22;9980;51.020;7.772;2023-04-25T15:47:37;14.30;71.30
19665;DHT22;9980;51.020;7.772;2023-04-25T15:50:06;14.20;71.50
19665;DHT22;9980;51.020;7.772;2023-04-25T15:52:35;14.10;71.80
19665;DHT22;9980;51.020;7.772;2023-04-25T15:55:02;14.10;73.30
19665;DHT22;9980;51.020;7.772;2023-04-25T15:57:34;14.00;72.60
19665;DHT22;9980;51.020;7.772;2023-04-25T16:00:03;13.90;72.80
19665;DHT22;9980;51.020;7.772;2023-04-25T16:02:37;13.80;74.30
19665;DHT22;9980;51.020;7.772;2023-04-25T16:05:06;13.80;75.10
19665;DHT22;9980;51.020;7.772;2023-04-25T16:07:33;13.70;75.90
19665;DHT22;9980;51.020;7.772;2023-04-25T16:09:59;13.70;75.70
19665;DHT22;9980;51.020;7.772;2023-04-25T16:12:26;13.60;75.30
19665;DHT22;9980;51.020;7.772;2023-04-25T16:14:53;13.60;76.20